logo
Search for airport 
image banner adimage banner adimage banner ad
image banner ad

EDDG - Muenster/Osnabrueck

Located in Greven, Germany

ICAO - EDDG, IATA - FMO

Data provided by Airmate  

General information

Coordinates: N52°8'5" E7°41'5"
Elevation is 159 feet MSL.
Magnetic variation is 2.2000° East
View others Airports in North Rhine-Westphalia

Operational data

Special qualification required
Current time UTC:
Current local time:
Weather
TAF: TAF EDDG 141100Z 1412/1512 23010KT CAVOK BECMG 1417/1419 23005KT BECMG 1420/1423 17003KT
View NOTAMs / SUP AIP / TFR affecting this airport [VIEW]
Communications frequencies: [VIEW]

Runways:

RWY identifierQFULength (ft)Width (ft)SurfaceLDA (ft)
0771°7119148ASPH7119
25251°7119148ASPH6463

Airport contact information

Address: Greven Germany

Other aviation service providers

Aviation club (not for profit)

Luftfahrtvereinigung Greven Von 1931 E.V.

Luftfahrtvereinigung Greven Von 1931 E.V.
Rated:
View ratings:
[VIEW]

Satellite view of EDDG